sensor_id;sensor_type;location;lat;lon;timestamp;P1;durP1;ratioP1;P2;durP2;ratioP2
71091;SDS011;58751;50.708;7.134;2022-10-16T00:02:16;1.80;;;1.70;;
71091;SDS011;58751;50.708;7.134;2022-10-16T00:04:43;2.03;;;1.83;;
71091;SDS011;58751;50.708;7.134;2022-10-16T00:07:08;2.50;;;2.30;;
71091;SDS011;58751;50.708;7.134;2022-10-16T00:09:33;3.10;;;2.80;;
71091;SDS011;58751;50.708;7.134;2022-10-16T00:11:58;2.30;;;2.10;;
71091;SDS011;58751;50.708;7.134;2022-10-16T00:14:24;2.37;;;1.97;;
71091;SDS011;58751;50.708;7.134;2022-10-16T00:16:49;1.80;;;1.70;;
71091;SDS011;58751;50.708;7.134;2022-10-16T00:19:14;8.50;;;1.70;;
71091;SDS011;58751;50.708;7.134;2022-10-16T00:21:41;3.20;;;1.50;;
71091;SDS011;58751;50.708;7.134;2022-10-16T00:24:07;2.30;;;2.10;;
71091;SDS011;58751;50.708;7.134;2022-10-16T00:26:33;2.28;;;2.05;;
71091;SDS011;58751;50.708;7.134;2022-10-16T00:28:58;2.53;;;2.33;;
71091;SDS011;58751;50.708;7.134;2022-10-16T00:31:23;2.43;;;2.20;;
71091;SDS011;58751;50.708;7.134;2022-10-16T00:33:49;2.63;;;2.43;;
71091;SDS011;58751;50.708;7.134;2022-10-16T00:36:15;3.50;;;2.73;;
71091;SDS011;58751;50.708;7.134;2022-10-16T00:38:42;5.68;;;2.33;;
71091;SDS011;58751;50.708;7.134;2022-10-16T00:41:09;3.53;;;2.35;;
71091;SDS011;58751;50.708;7.134;2022-10-16T00:43:36;2.63;;;2.08;;
71091;SDS011;58751;50.708;7.134;2022-10-16T00:46:02;4.20;;;2.15;;
71091;SDS011;58751;50.708;7.134;2022-10-16T00:48:29;5.57;;;2.40;;
71091;SDS011;58751;50.708;7.134;2022-10-16T00:50:54;1.93;;;1.83;;
71091;SDS011;58751;50.708;7.134;2022-10-16T00:53:20;1.80;;;1.70;;
71091;SDS011;58751;50.708;7.134;2022-10-16T00:55:47;2.30;;;2.10;;
71091;SDS011;58751;50.708;7.134;2022-10-16T00:58:13;2.25;;;2.15;;
71091;SDS011;58751;50.708;7.134;2022-10-16T01:00:38;2.20;;;2.03;;
71091;SDS011;58751;50.708;7.134;2022-10-16T01:05:44;2.20;;;2.00;;
71091;SDS011;58751;50.708;7.134;2022-10-16T01:08:13;2.15;;;2.03;;
71091;SDS011;58751;50.708;7.134;2022-10-16T01:10:40;2.63;;;2.42;;
71091;SDS011;58751;50.708;7.134;2022-10-16T01:13:11;1.88;;;1.73;;
71091;SDS011;58751;50.708;7.134;2022-10-16T01:15:40;1.98;;;1.88;;
71091;SDS011;58751;50.708;7.134;2022-10-16T01:18:08;2.13;;;2.00;;
71091;SDS011;58751;50.708;7.134;2022-10-16T01:20:37;2.45;;;2.30;;
71091;SDS011;58751;50.708;7.134;2022-10-16T01:23:06;2.35;;;2.25;;
71091;SDS011;58751;50.708;7.134;2022-10-16T01:25:37;9.43;;;2.55;;
71091;SDS011;58751;50.708;7.134;2022-10-16T01:28:06;2.90;;;2.17;;
71091;SDS011;58751;50.708;7.134;2022-10-16T01:30:34;2.15;;;2.05;;
71091;SDS011;58751;50.708;7.134;2022-10-16T01:33:01;4.65;;;2.50;;
71091;SDS011;58751;50.708;7.134;2022-10-16T01:35:28;5.38;;;2.58;;
71091;SDS011;58751;50.708;7.134;2022-10-16T01:37:55;3.28;;;2.58;;
71091;SDS011;58751;50.708;7.134;2022-10-16T01:40:24;2.78;;;2.58;;
71091;SDS011;58751;50.708;7.134;2022-10-16T01:42:52;2.80;;;2.60;;
71091;SDS011;58751;50.708;7.134;2022-10-16T01:45:19;6.00;;;3.08;;
71091;SDS011;58751;50.708;7.134;2022-10-16T01:47:45;2.83;;;2.63;;
71091;SDS011;58751;50.708;7.134;2022-10-16T01:50:11;2.17;;;1.97;;
71091;SDS011;58751;50.708;7.134;2022-10-16T01:52:38;2.60;;;2.40;;
71091;SDS011;58751;50.708;7.134;2022-10-16T01:55:05;2.55;;;2.00;;
71091;SDS011;58751;50.708;7.134;2022-10-16T01:57:31;1.95;;;1.75;;
71091;SDS011;58751;50.708;7.134;2022-10-16T02:00:00;1.95;;;1.80;;
71091;SDS011;58751;50.708;7.134;2022-10-16T02:02:28;1.85;;;1.75;;
71091;SDS011;58751;50.708;7.134;2022-10-16T02:04:54;2.08;;;1.90;;
71091;SDS011;58751;50.708;7.134;2022-10-16T02:07:22;2.30;;;2.10;;
71091;SDS011;58751;50.708;7.134;2022-10-16T02:09:48;2.30;;;2.10;;
71091;SDS011;58751;50.708;7.134;2022-10-16T02:12:14;2.30;;;2.10;;
71091;SDS011;58751;50.708;7.134;2022-10-16T02:14:40;2.13;;;2.03;;
71091;SDS011;58751;50.708;7.134;2022-10-16T02:17:09;2.00;;;1.90;;
71091;SDS011;58751;50.708;7.134;2022-10-16T02:19:36;1.85;;;1.65;;
71091;SDS011;58751;50.708;7.134;2022-10-16T02:22:02;3.40;;;1.90;;
71091;SDS011;58751;50.708;7.134;2022-10-16T02:24:32;1.90;;;1.80;;
71091;SDS011;58751;50.708;7.134;2022-10-16T02:27:01;2.00;;;1.80;;
71091;SDS011;58751;50.708;7.134;2022-10-16T02:29:28;2.47;;;1.85;;
71091;SDS011;58751;50.708;7.134;2022-10-16T02:31:54;2.07;;;1.97;;
71091;SDS011;58751;50.708;7.134;2022-10-16T02:34:20;1.67;;;1.58;;
71091;SDS011;58751;50.708;7.134;2022-10-16T02:36:47;2.90;;;1.97;;
71091;SDS011;58751;50.708;7.134;2022-10-16T02:39:14;1.88;;;1.77;;
71091;SDS011;58751;50.708;7.134;2022-10-16T02:41:39;2.70;;;1.50;;
71091;SDS011;58751;50.708;7.134;2022-10-16T02:44:04;1.37;;;1.27;;
71091;SDS011;58751;50.708;7.134;2022-10-16T02:46:30;1.73;;;1.63;;
71091;SDS011;58751;50.708;7.134;2022-10-16T02:48:55;7.23;;;1.70;;
71091;SDS011;58751;50.708;7.134;2022-10-16T02:51:20;2.20;;;2.10;;
71091;SDS011;58751;50.708;7.134;2022-10-16T02:53:46;5.43;;;2.10;;
71091;SDS011;58751;50.708;7.134;2022-10-16T02:56:12;2.30;;;1.90;;
71091;SDS011;58751;50.708;7.134;2022-10-16T02:58:37;2.70;;;2.10;;
71091;SDS011;58751;50.708;7.134;2022-10-16T03:01:02;2.20;;;2.00;;
71091;SDS011;58751;50.708;7.134;2022-10-16T03:03:27;1.80;;;1.70;;
71091;SDS011;58751;50.708;7.134;2022-10-16T03:05:53;5.20;;;1.90;;
71091;SDS011;58751;50.708;7.134;2022-10-16T03:08:18;2.37;;;2.17;;
71091;SDS011;58751;50.708;7.134;2022-10-16T03:10:44;1.83;;;1.73;;
71091;SDS011;58751;50.708;7.134;2022-10-16T03:13:09;2.88;;;1.90;;
71091;SDS011;58751;50.708;7.134;2022-10-16T03:15:35;3.23;;;1.97;;
71091;SDS011;58751;50.708;7.134;2022-10-16T03:18:00;1.70;;;1.60;;
71091;SDS011;58751;50.708;7.134;2022-10-16T03:20:25;1.67;;;1.57;;
71091;SDS011;58751;50.708;7.134;2022-10-16T03:22:50;1.73;;;1.63;;
71091;SDS011;58751;50.708;7.134;2022-10-16T03:25:16;1.90;;;1.80;;
71091;SDS011;58751;50.708;7.134;2022-10-16T03:27:42;6.30;;;2.00;;
71091;SDS011;58751;50.708;7.134;2022-10-16T03:30:08;2.28;;;1.60;;
71091;SDS011;58751;50.708;7.134;2022-10-16T03:32:33;4.13;;;1.83;;
71091;SDS011;58751;50.708;7.134;2022-10-16T03:34:59;3.10;;;1.90;;
71091;SDS011;58751;50.708;7.134;2022-10-16T03:37:24;2.07;;;1.63;;
71091;SDS011;58751;50.708;7.134;2022-10-16T03:39:49;1.37;;;1.37;;
71091;SDS011;58751;50.708;7.134;2022-10-16T03:42:14;2.53;;;1.93;;
71091;SDS011;58751;50.708;7.134;2022-10-16T03:44:41;1.73;;;1.23;;
71091;SDS011;58751;50.708;7.134;2022-10-16T03:47:06;1.30;;;1.25;;
71091;SDS011;58751;50.708;7.134;2022-10-16T03:49:31;2.43;;;1.23;;
71091;SDS011;58751;50.708;7.134;2022-10-16T03:51:57;2.10;;;1.57;;
71091;SDS011;58751;50.708;7.134;2022-10-16T03:54:22;1.60;;;1.50;;
71091;SDS011;58751;50.708;7.134;2022-10-16T03:56:47;2.53;;;1.80;;
71091;SDS011;58751;50.708;7.134;2022-10-16T03:59:12;2.57;;;1.57;;
71091;SDS011;58751;50.708;7.134;2022-10-16T04:01:39;1.43;;;1.33;;
71091;SDS011;58751;50.708;7.134;2022-10-16T04:04:04;2.28;;;1.23;;
71091;SDS011;58751;50.708;7.134;2022-10-16T04:06:29;1.33;;;1.23;;
71091;SDS011;58751;50.708;7.134;2022-10-16T04:08:54;1.77;;;1.60;;
71091;SDS011;58751;50.708;7.134;2022-10-16T04:11:20;1.73;;;1.63;;
71091;SDS011;58751;50.708;7.134;2022-10-16T04:13:45;3.37;;;1.20;;
71091;SDS011;58751;50.708;7.134;2022-10-16T04:16:10;3.57;;;2.20;;
71091;SDS011;58751;50.708;7.134;2022-10-16T04:18:37;1.20;;;1.20;;
71091;SDS011;58751;50.708;7.134;2022-10-16T04:21:02;1.40;;;1.30;;
71091;SDS011;58751;50.708;7.134;2022-10-16T04:23:28;4.45;;;1.55;;
71091;SDS011;58751;50.708;7.134;2022-10-16T04:25:53;2.43;;;1.60;;
71091;SDS011;58751;50.708;7.134;2022-10-16T04:28:18;1.70;;;1.57;;
71091;SDS011;58751;50.708;7.134;2022-10-16T04:30:44;1.50;;;1.40;;
71091;SDS011;58751;50.708;7.134;2022-10-16T04:33:09;1.43;;;1.33;;
71091;SDS011;58751;50.708;7.134;2022-10-16T04:35:35;2.10;;;1.53;;
71091;SDS011;58751;50.708;7.134;2022-10-16T04:38:01;1.75;;;1.65;;
71091;SDS011;58751;50.708;7.134;2022-10-16T04:40:26;1.50;;;1.40;;
71091;SDS011;58751;50.708;7.134;2022-10-16T04:42:51;1.73;;;1.63;;
71091;SDS011;58751;50.708;7.134;2022-10-16T04:45:16;1.93;;;1.50;;
71091;SDS011;58751;50.708;7.134;2022-10-16T04:47:42;2.30;;;1.67;;
71091;SDS011;58751;50.708;7.134;2022-10-16T04:50:07;1.47;;;1.43;;
71091;SDS011;58751;50.708;7.134;2022-10-16T04:52:34;1.13;;;1.13;;
71091;SDS011;58751;50.708;7.134;2022-10-16T04:54:59;1.27;;;1.17;;
71091;SDS011;58751;50.708;7.134;2022-10-16T04:57:24;1.67;;;1.20;;
71091;SDS011;58751;50.708;7.134;2022-10-16T04:59:49;1.40;;;1.40;;
71091;SDS011;58751;50.708;7.134;2022-10-16T05:02:15;1.20;;;1.20;;
71091;SDS011;58751;50.708;7.134;2022-10-16T05:04:40;1.20;;;1.20;;
71091;SDS011;58751;50.708;7.134;2022-10-16T05:07:05;5.37;;;1.60;;
71091;SDS011;58751;50.708;7.134;2022-10-16T05:09:32;1.70;;;1.60;;
71091;SDS011;58751;50.708;7.134;2022-10-16T05:11:57;2.83;;;1.80;;
71091;SDS011;58751;50.708;7.134;2022-10-16T05:14:22;1.43;;;1.33;;
71091;SDS011;58751;50.708;7.134;2022-10-16T05:16:47;1.80;;;1.70;;
71091;SDS011;58751;50.708;7.134;2022-10-16T05:19:12;1.43;;;1.33;;
71091;SDS011;58751;50.708;7.134;2022-10-16T05:21:38;1.47;;;1.37;;
71091;SDS011;58751;50.708;7.134;2022-10-16T05:24:03;1.20;;;1.10;;
71091;SDS011;58751;50.708;7.134;2022-10-16T05:26:29;2.00;;;1.47;;
71091;SDS011;58751;50.708;7.134;2022-10-16T05:28:55;1.60;;;1.50;;
71091;SDS011;58751;50.708;7.134;2022-10-16T05:31:20;1.77;;;1.67;;
71091;SDS011;58751;50.708;7.134;2022-10-16T05:33:45;3.80;;;1.63;;
71091;SDS011;58751;50.708;7.134;2022-10-16T05:36:10;2.63;;;1.67;;
71091;SDS011;58751;50.708;7.134;2022-10-16T05:38:36;2.17;;;1.97;;
71091;SDS011;58751;50.708;7.134;2022-10-16T05:41:01;2.40;;;2.20;;
71091;SDS011;58751;50.708;7.134;2022-10-16T05:43:28;2.70;;;2.50;;
71091;SDS011;58751;50.708;7.134;2022-10-16T05:45:54;1.95;;;1.85;;
71091;SDS011;58751;50.708;7.134;2022-10-16T05:48:20;3.70;;;2.20;;
71091;SDS011;58751;50.708;7.134;2022-10-16T05:50:45;2.33;;;2.13;;
71091;SDS011;58751;50.708;7.134;2022-10-16T05:53:10;1.93;;;1.83;;
71091;SDS011;58751;50.708;7.134;2022-10-16T05:55:35;2.10;;;2.00;;
71091;SDS011;58751;50.708;7.134;2022-10-16T05:58:01;2.43;;;2.30;;
71091;SDS011;58751;50.708;7.134;2022-10-16T06:00:27;5.40;;;2.03;;
71091;SDS011;58751;50.708;7.134;2022-10-16T06:02:53;2.05;;;1.85;;
71091;SDS011;58751;50.708;7.134;2022-10-16T06:05:18;2.80;;;2.60;;
71091;SDS011;58751;50.708;7.134;2022-10-16T06:07:43;4.40;;;2.57;;
71091;SDS011;58751;50.708;7.134;2022-10-16T06:10:08;1.80;;;1.70;;
71091;SDS011;58751;50.708;7.134;2022-10-16T06:12:34;2.40;;;2.10;;
71091;SDS011;58751;50.708;7.134;2022-10-16T06:14:59;6.07;;;2.13;;
71091;SDS011;58751;50.708;7.134;2022-10-16T06:17:25;2.23;;;2.13;;
71091;SDS011;58751;50.708;7.134;2022-10-16T06:19:51;2.10;;;2.00;;
71091;SDS011;58751;50.708;7.134;2022-10-16T06:22:16;1.60;;;1.40;;
71091;SDS011;58751;50.708;7.134;2022-10-16T06:24:41;2.10;;;2.00;;
71091;SDS011;58751;50.708;7.134;2022-10-16T06:27:06;2.13;;;1.93;;
71091;SDS011;58751;50.708;7.134;2022-10-16T06:29:31;2.50;;;1.60;;
71091;SDS011;58751;50.708;7.134;2022-10-16T06:31:57;2.87;;;2.10;;
71091;SDS011;58751;50.708;7.134;2022-10-16T06:34:24;1.83;;;1.73;;
71091;SDS011;58751;50.708;7.134;2022-10-16T06:36:49;2.10;;;2.00;;
71091;SDS011;58751;50.708;7.134;2022-10-16T06:39:14;2.03;;;1.93;;
71091;SDS011;58751;50.708;7.134;2022-10-16T06:41:39;1.80;;;1.70;;
71091;SDS011;58751;50.708;7.134;2022-10-16T06:44:05;2.23;;;2.03;;
71091;SDS011;58751;50.708;7.134;2022-10-16T06:46:30;2.30;;;1.73;;
71091;SDS011;58751;50.708;7.134;2022-10-16T06:48:55;2.70;;;1.70;;
71091;SDS011;58751;50.708;7.134;2022-10-16T06:51:22;2.23;;;2.10;;
71091;SDS011;58751;50.708;7.134;2022-10-16T06:53:48;2.17;;;2.00;;
71091;SDS011;58751;50.708;7.134;2022-10-16T06:56:15;4.50;;;2.33;;
71091;SDS011;58751;50.708;7.134;2022-10-16T06:58:41;2.07;;;1.97;;
71091;SDS011;58751;50.708;7.134;2022-10-16T07:01:06;2.20;;;2.10;;
71091;SDS011;58751;50.708;7.134;2022-10-16T07:03:32;1.70;;;1.60;;
71091;SDS011;58751;50.708;7.134;2022-10-16T07:06:00;2.17;;;1.90;;
71091;SDS011;58751;50.708;7.134;2022-10-16T07:08:27;1.70;;;1.60;;
71091;SDS011;58751;50.708;7.134;2022-10-16T07:10:57;1.70;;;1.60;;
71091;SDS011;58751;50.708;7.134;2022-10-16T07:13:23;1.73;;;1.63;;
71091;SDS011;58751;50.708;7.134;2022-10-16T07:15:48;1.57;;;1.47;;
71091;SDS011;58751;50.708;7.134;2022-10-16T07:18:13;2.30;;;2.10;;
71091;SDS011;58751;50.708;7.134;2022-10-16T07:20:38;1.83;;;1.67;;
71091;SDS011;58751;50.708;7.134;2022-10-16T07:23:04;5.07;;;2.07;;
71091;SDS011;58751;50.708;7.134;2022-10-16T07:25:30;3.97;;;1.73;;
71091;SDS011;58751;50.708;7.134;2022-10-16T07:27:55;1.83;;;1.67;;
71091;SDS011;58751;50.708;7.134;2022-10-16T07:30:20;1.80;;;1.43;;
71091;SDS011;58751;50.708;7.134;2022-10-16T07:32:46;2.07;;;1.50;;
71091;SDS011;58751;50.708;7.134;2022-10-16T07:35:11;1.83;;;1.70;;
71091;SDS011;58751;50.708;7.134;2022-10-16T07:37:36;1.70;;;1.60;;
71091;SDS011;58751;50.708;7.134;2022-10-16T07:40:01;2.60;;;2.00;;
71091;SDS011;58751;50.708;7.134;2022-10-16T07:42:28;1.67;;;1.57;;
71091;SDS011;58751;50.708;7.134;2022-10-16T07:44:53;2.10;;;1.53;;
71091;SDS011;58751;50.708;7.134;2022-10-16T07:47:18;2.13;;;1.80;;
71091;SDS011;58751;50.708;7.134;2022-10-16T07:49:44;4.40;;;2.20;;
71091;SDS011;58751;50.708;7.134;2022-10-16T07:52:09;1.80;;;1.70;;
71091;SDS011;58751;50.708;7.134;2022-10-16T07:54:34;1.60;;;1.50;;
71091;SDS011;58751;50.708;7.134;2022-10-16T07:56:59;3.07;;;2.00;;
71091;SDS011;58751;50.708;7.134;2022-10-16T07:59:26;1.60;;;1.50;;
71091;SDS011;58751;50.708;7.134;2022-10-16T08:01:51;1.23;;;1.23;;
71091;SDS011;58751;50.708;7.134;2022-10-16T08:04:16;1.10;;;1.10;;
71091;SDS011;58751;50.708;7.134;2022-10-16T08:06:42;1.63;;;1.53;;
71091;SDS011;58751;50.708;7.134;2022-10-16T08:09:07;1.20;;;1.20;;
71091;SDS011;58751;50.708;7.134;2022-10-16T08:11:33;4.00;;;1.40;;
71091;SDS011;58751;50.708;7.134;2022-10-16T08:13:58;1.13;;;1.13;;
71091;SDS011;58751;50.708;7.134;2022-10-16T08:16:25;1.20;;;1.20;;
71091;SDS011;58751;50.708;7.134;2022-10-16T08:18:50;1.03;;;0.97;;
71091;SDS011;58751;50.708;7.134;2022-10-16T08:21:16;1.73;;;1.30;;
71091;SDS011;58751;50.708;7.134;2022-10-16T08:23:42;1.30;;;1.20;;
71091;SDS011;58751;50.708;7.134;2022-10-16T08:26:07;1.30;;;1.20;;
71091;SDS011;58751;50.708;7.134;2022-10-16T08:28:33;2.13;;;1.30;;
71091;SDS011;58751;50.708;7.134;2022-10-16T08:31:04;1.27;;;1.10;;
71091;SDS011;58751;50.708;7.134;2022-10-16T08:33:31;2.80;;;0.83;;
71091;SDS011;58751;50.708;7.134;2022-10-16T08:35:56;0.97;;;0.90;;
71091;SDS011;58751;50.708;7.134;2022-10-16T08:38:21;0.80;;;0.80;;
71091;SDS011;58751;50.708;7.134;2022-10-16T08:40:46;1.17;;;0.87;;
71091;SDS011;58751;50.708;7.134;2022-10-16T08:43:16;1.07;;;1.07;;
71091;SDS011;58751;50.708;7.134;2022-10-16T08:45:49;0.83;;;0.83;;
71091;SDS011;58751;50.708;7.134;2022-10-16T08:48:20;1.37;;;0.77;;
71091;SDS011;58751;50.708;7.134;2022-10-16T08:50:49;1.60;;;1.33;;
71091;SDS011;58751;50.708;7.134;2022-10-16T08:53:16;0.87;;;0.73;;
71091;SDS011;58751;50.708;7.134;2022-10-16T08:55:43;0.93;;;0.87;;
71091;SDS011;58751;50.708;7.134;2022-10-16T08:58:13;1.63;;;0.80;;
71091;SDS011;58751;50.708;7.134;2022-10-16T09:00:39;0.93;;;0.70;;
71091;SDS011;58751;50.708;7.134;2022-10-16T09:03:05;1.03;;;0.97;;
71091;SDS011;58751;50.708;7.134;2022-10-16T09:05:46;0.70;;;0.70;;
71091;SDS011;58751;50.708;7.134;2022-10-16T09:08:16;1.63;;;0.80;;
71091;SDS011;58751;50.708;7.134;2022-10-16T09:10:47;2.03;;;0.80;;
71091;SDS011;58751;50.708;7.134;2022-10-16T09:13:17;1.00;;;0.90;;
71091;SDS011;58751;50.708;7.134;2022-10-16T09:15:44;0.70;;;0.50;;
71091;SDS011;58751;50.708;7.134;2022-10-16T09:18:14;0.57;;;0.53;;
71091;SDS011;58751;50.708;7.134;2022-10-16T09:20:43;0.50;;;0.50;;
71091;SDS011;58751;50.708;7.134;2022-10-16T09:23:13;0.60;;;0.60;;
71091;SDS011;58751;50.708;7.134;2022-10-16T09:25:40;0.70;;;0.60;;
71091;SDS011;58751;50.708;7.134;2022-10-16T09:28:07;1.10;;;1.00;;
71091;SDS011;58751;50.708;7.134;2022-10-16T09:30:33;0.67;;;0.53;;
71091;SDS011;58751;50.708;7.134;2022-10-16T09:32:58;0.60;;;0.60;;
71091;SDS011;58751;50.708;7.134;2022-10-16T09:35:25;1.63;;;0.70;;
71091;SDS011;58751;50.708;7.134;2022-10-16T09:37:52;0.40;;;0.40;;
71091;SDS011;58751;50.708;7.134;2022-10-16T09:40:25;0.60;;;0.40;;
71091;SDS011;58751;50.708;7.134;2022-10-16T09:42:52;0.63;;;0.50;;
71091;SDS011;58751;50.708;7.134;2022-10-16T09:45:21;0.57;;;0.57;;
71091;SDS011;58751;50.708;7.134;2022-10-16T09:47:46;3.40;;;0.63;;
71091;SDS011;58751;50.708;7.134;2022-10-16T09:50:19;0.50;;;0.50;;
71091;SDS011;58751;50.708;7.134;2022-10-16T09:52:45;0.77;;;0.77;;
71091;SDS011;58751;50.708;7.134;2022-10-16T09:55:13;1.17;;;1.03;;
71091;SDS011;58751;50.708;7.134;2022-10-16T09:57:47;0.40;;;0.40;;
71091;SDS011;58751;50.708;7.134;2022-10-16T10:00:16;0.50;;;0.50;;
71091;SDS011;58751;50.708;7.134;2022-10-16T10:02:42;0.40;;;0.40;;
71091;SDS011;58751;50.708;7.134;2022-10-16T10:05:17;0.40;;;0.37;;
71091;SDS011;58751;50.708;7.134;2022-10-16T10:07:43;2.00;;;1.07;;
71091;SDS011;58751;50.708;7.134;2022-10-16T10:10:18;0.57;;;0.57;;
71091;SDS011;58751;50.708;7.134;2022-10-16T10:12:44;0.60;;;0.50;;
71091;SDS011;58751;50.708;7.134;2022-10-16T10:15:10;0.60;;;0.40;;
71091;SDS011;58751;50.708;7.134;2022-10-16T10:17:44;1.90;;;0.50;;
71091;SDS011;58751;50.708;7.134;2022-10-16T10:20:15;0.60;;;0.47;;
71091;SDS011;58751;50.708;7.134;2022-10-16T10:22:46;0.70;;;0.50;;
71091;SDS011;58751;50.708;7.134;2022-10-16T10:28:06;4.83;;;0.47;;
71091;SDS011;58751;50.708;7.134;2022-10-16T10:30:37;0.50;;;0.40;;
71091;SDS011;58751;50.708;7.134;2022-10-16T10:33:09;1.20;;;0.50;;
71091;SDS011;58751;50.708;7.134;2022-10-16T10:35:39;0.53;;;0.50;;
71091;SDS011;58751;50.708;7.134;2022-10-16T10:38:11;0.47;;;0.40;;
71091;SDS011;58751;50.708;7.134;2022-10-16T10:40:44;0.60;;;0.30;;
71091;SDS011;58751;50.708;7.134;2022-10-16T10:43:12;0.83;;;0.30;;
71091;SDS011;58751;50.708;7.134;2022-10-16T10:45:42;0.30;;;0.20;;
71091;SDS011;58751;50.708;7.134;2022-10-16T10:48:22;0.77;;;0.33;;
71091;SDS011;58751;50.708;7.134;2022-10-16T10:50:49;2.03;;;0.47;;
71091;SDS011;58751;50.708;7.134;2022-10-16T10:53:18;1.07;;;0.40;;
71091;SDS011;58751;50.708;7.134;2022-10-16T10:55:47;1.03;;;0.50;;
71091;SDS011;58751;50.708;7.134;2022-10-16T10:58:23;1.70;;;0.47;;
71091;SDS011;58751;50.708;7.134;2022-10-16T11:00:53;1.03;;;0.60;;
71091;SDS011;58751;50.708;7.134;2022-10-16T11:03:32;1.63;;;0.63;;
71091;SDS011;58751;50.708;7.134;2022-10-16T11:05:59;0.87;;;0.63;;
71091;SDS011;58751;50.708;7.134;2022-10-16T11:08:27;1.50;;;0.50;;
71091;SDS011;58751;50.708;7.134;2022-10-16T11:10:54;0.40;;;0.30;;
71091;SDS011;58751;50.708;7.134;2022-10-16T11:13:28;0.50;;;0.47;;
71091;SDS011;58751;50.708;7.134;2022-10-16T11:15:54;1.50;;;0.60;;
71091;SDS011;58751;50.708;7.134;2022-10-16T11:18:21;0.60;;;0.50;;
71091;SDS011;58751;50.708;7.134;2022-10-16T11:20:50;1.17;;;0.40;;
71091;SDS011;58751;50.708;7.134;2022-10-16T11:23:17;0.60;;;0.47;;
71091;SDS011;58751;50.708;7.134;2022-10-16T11:25:43;0.40;;;0.40;;
71091;SDS011;58751;50.708;7.134;2022-10-16T11:28:10;0.30;;;0.20;;
71091;SDS011;58751;50.708;7.134;2022-10-16T11:30:39;1.30;;;0.80;;
71091;SDS011;58751;50.708;7.134;2022-10-16T11:33:10;0.40;;;0.40;;
71091;SDS011;58751;50.708;7.134;2022-10-16T11:35:42;0.60;;;0.40;;
71091;SDS011;58751;50.708;7.134;2022-10-16T11:38:12;0.50;;;0.30;;
71091;SDS011;58751;50.708;7.134;2022-10-16T11:40:40;0.70;;;0.40;;
71091;SDS011;58751;50.708;7.134;2022-10-16T11:43:10;0.43;;;0.40;;
71091;SDS011;58751;50.708;7.134;2022-10-16T11:45:38;0.40;;;0.30;;
71091;SDS011;58751;50.708;7.134;2022-10-16T11:48:07;0.80;;;0.40;;
71091;SDS011;58751;50.708;7.134;2022-10-16T11:50:37;2.30;;;0.40;;
71091;SDS011;58751;50.708;7.134;2022-10-16T11:53:04;1.70;;;0.50;;
71091;SDS011;58751;50.708;7.134;2022-10-16T11:55:39;1.27;;;0.50;;
71091;SDS011;58751;50.708;7.134;2022-10-16T11:58:05;0.77;;;0.50;;
71091;SDS011;58751;50.708;7.134;2022-10-16T12:00:34;1.10;;;0.70;;
71091;SDS011;58751;50.708;7.134;2022-10-16T12:03:03;0.70;;;0.40;;
71091;SDS011;58751;50.708;7.134;2022-10-16T12:05:35;1.00;;;0.60;;
71091;SDS011;58751;50.708;7.134;2022-10-16T12:08:06;0.50;;;0.30;;
71091;SDS011;58751;50.708;7.134;2022-10-16T12:10:33;0.60;;;0.40;;
71091;SDS011;58751;50.708;7.134;2022-10-16T12:12:59;0.40;;;0.37;;
71091;SDS011;58751;50.708;7.134;2022-10-16T12:15:25;0.40;;;0.40;;
71091;SDS011;58751;50.708;7.134;2022-10-16T12:17:51;1.13;;;0.53;;
71091;SDS011;58751;50.708;7.134;2022-10-16T12:20:23;0.50;;;0.40;;
71091;SDS011;58751;50.708;7.134;2022-10-16T12:22:50;0.40;;;0.30;;
71091;SDS011;58751;50.708;7.134;2022-10-16T12:25:23;1.43;;;0.40;;
71091;SDS011;58751;50.708;7.134;2022-10-16T12:27:53;1.10;;;0.30;;
71091;SDS011;58751;50.708;7.134;2022-10-16T12:30:22;0.97;;;0.37;;
71091;SDS011;58751;50.708;7.134;2022-10-16T12:32:53;0.50;;;0.47;;
71091;SDS011;58751;50.708;7.134;2022-10-16T12:35:19;1.33;;;0.57;;
71091;SDS011;58751;50.708;7.134;2022-10-16T12:37:45;0.50;;;0.37;;
71091;SDS011;58751;50.708;7.134;2022-10-16T12:40:11;1.17;;;0.40;;
71091;SDS011;58751;50.708;7.134;2022-10-16T12:42:37;0.80;;;0.50;;
71091;SDS011;58751;50.708;7.134;2022-10-16T12:45:12;0.47;;;0.43;;
71091;SDS011;58751;50.708;7.134;2022-10-16T12:47:47;0.50;;;0.40;;
71091;SDS011;58751;50.708;7.134;2022-10-16T12:50:26;2.27;;;0.43;;
71091;SDS011;58751;50.708;7.134;2022-10-16T12:52:51;0.40;;;0.40;;
71091;SDS011;58751;50.708;7.134;2022-10-16T12:55:17;3.50;;;0.60;;
71091;SDS011;58751;50.708;7.134;2022-10-16T12:57:45;0.40;;;0.40;;
71091;SDS011;58751;50.708;7.134;2022-10-16T13:00:20;0.63;;;0.47;;
71091;SDS011;58751;50.708;7.134;2022-10-16T13:02:53;0.40;;;0.30;;
71091;SDS011;58751;50.708;7.134;2022-10-16T13:05:24;0.67;;;0.40;;
71091;SDS011;58751;50.708;7.134;2022-10-16T13:07:53;0.40;;;0.40;;
71091;SDS011;58751;50.708;7.134;2022-10-16T13:10:23;2.30;;;0.40;;
71091;SDS011;58751;50.708;7.134;2022-10-16T13:12:55;0.63;;;0.40;;
71091;SDS011;58751;50.708;7.134;2022-10-16T13:15:27;0.70;;;0.70;;
71091;SDS011;58751;50.708;7.134;2022-10-16T13:17:58;0.60;;;0.37;;
71091;SDS011;58751;50.708;7.134;2022-10-16T13:20:27;0.60;;;0.60;;
71091;SDS011;58751;50.708;7.134;2022-10-16T13:22:56;0.30;;;0.20;;
71091;SDS011;58751;50.708;7.134;2022-10-16T13:25:27;0.77;;;0.50;;
71091;SDS011;58751;50.708;7.134;2022-10-16T13:27:56;0.50;;;0.40;;
71091;SDS011;58751;50.708;7.134;2022-10-16T13:30:24;0.40;;;0.40;;
71091;SDS011;58751;50.708;7.134;2022-10-16T13:32:50;1.50;;;0.40;;
71091;SDS011;58751;50.708;7.134;2022-10-16T13:35:21;0.40;;;0.33;;
71091;SDS011;58751;50.708;7.134;2022-10-16T13:37:47;0.80;;;0.37;;
71091;SDS011;58751;50.708;7.134;2022-10-16T13:40:17;0.80;;;0.40;;
71091;SDS011;58751;50.708;7.134;2022-10-16T13:42:42;0.60;;;0.40;;
71091;SDS011;58751;50.708;7.134;2022-10-16T13:45:16;0.50;;;0.47;;
71091;SDS011;58751;50.708;7.134;2022-10-16T13:47:42;1.23;;;0.20;;
71091;SDS011;58751;50.708;7.134;2022-10-16T13:50:09;0.47;;;0.40;;
71091;SDS011;58751;50.708;7.134;2022-10-16T13:52:37;0.97;;;0.50;;
71091;SDS011;58751;50.708;7.134;2022-10-16T13:55:03;0.40;;;0.40;;
71091;SDS011;58751;50.708;7.134;2022-10-16T13:57:28;0.30;;;0.30;;
71091;SDS011;58751;50.708;7.134;2022-10-16T13:59:53;0.40;;;0.30;;
71091;SDS011;58751;50.708;7.134;2022-10-16T14:02:20;0.40;;;0.40;;
71091;SDS011;58751;50.708;7.134;2022-10-16T14:04:47;0.30;;;0.30;;
71091;SDS011;58751;50.708;7.134;2022-10-16T14:07:13;0.43;;;0.30;;
71091;SDS011;58751;50.708;7.134;2022-10-16T14:09:41;0.60;;;0.30;;
71091;SDS011;58751;50.708;7.134;2022-10-16T14:12:08;0.97;;;0.47;;
71091;SDS011;58751;50.708;7.134;2022-10-16T14:14:34;1.03;;;0.40;;
71091;SDS011;58751;50.708;7.134;2022-10-16T14:17:00;0.50;;;0.50;;
71091;SDS011;58751;50.708;7.134;2022-10-16T14:19:27;0.70;;;0.40;;
71091;SDS011;58751;50.708;7.134;2022-10-16T14:21:53;0.63;;;0.63;;
71091;SDS011;58751;50.708;7.134;2022-10-16T14:24:25;1.43;;;0.90;;
71091;SDS011;58751;50.708;7.134;2022-10-16T14:26:52;1.10;;;1.00;;
71091;SDS011;58751;50.708;7.134;2022-10-16T14:29:18;0.80;;;0.70;;
71091;SDS011;58751;50.708;7.134;2022-10-16T14:31:53;0.50;;;0.50;;
71091;SDS011;58751;50.708;7.134;2022-10-16T14:34:23;0.40;;;0.40;;
71091;SDS011;58751;50.708;7.134;2022-10-16T14:36:48;0.80;;;0.63;;
71091;SDS011;58751;50.708;7.134;2022-10-16T14:39:14;0.63;;;0.50;;
71091;SDS011;58751;50.708;7.134;2022-10-16T14:41:43;0.50;;;0.50;;
71091;SDS011;58751;50.708;7.134;2022-10-16T14:44:11;1.70;;;0.43;;
71091;SDS011;58751;50.708;7.134;2022-10-16T14:46:37;1.03;;;0.60;;
71091;SDS011;58751;50.708;7.134;2022-10-16T14:49:03;1.13;;;0.70;;
71091;SDS011;58751;50.708;7.134;2022-10-16T14:51:29;0.53;;;0.53;;
71091;SDS011;58751;50.708;7.134;2022-10-16T14:53:55;0.70;;;0.70;;